sensor_id;sensor_type;location;lat;lon;timestamp;P1;durP1;ratioP1;P2;durP2;ratioP2
17494;SDS011;8864;51.970;4.614;2023-03-23T00:00:14;2.78;;;1.10;;
17494;SDS011;8864;51.970;4.614;2023-03-23T00:02:42;3.33;;;1.08;;
17494;SDS011;8864;51.970;4.614;2023-03-23T00:05:10;3.25;;;1.20;;
17494;SDS011;8864;51.970;4.614;2023-03-23T00:07:37;1.75;;;1.10;;
17494;SDS011;8864;51.970;4.614;2023-03-23T00:10:10;3.60;;;1.10;;
17494;SDS011;8864;51.970;4.614;2023-03-23T00:12:37;2.40;;;0.93;;
17494;SDS011;8864;51.970;4.614;2023-03-23T00:15:09;5.78;;;0.98;;
17494;SDS011;8864;51.970;4.614;2023-03-23T00:17:38;2.22;;;0.75;;
17494;SDS011;8864;51.970;4.614;2023-03-23T00:20:06;2.95;;;0.98;;
17494;SDS011;8864;51.970;4.614;2023-03-23T00:22:35;1.63;;;0.80;;
17494;SDS011;8864;51.970;4.614;2023-03-23T00:25:03;2.03;;;1.00;;
17494;SDS011;8864;51.970;4.614;2023-03-23T00:27:33;2.47;;;1.00;;
17494;SDS011;8864;51.970;4.614;2023-03-23T00:30:00;2.38;;;0.77;;
17494;SDS011;8864;51.970;4.614;2023-03-23T00:32:28;3.00;;;0.80;;
17494;SDS011;8864;51.970;4.614;2023-03-23T00:34:55;2.42;;;0.98;;
17494;SDS011;8864;51.970;4.614;2023-03-23T00:37:24;4.13;;;1.20;;
17494;SDS011;8864;51.970;4.614;2023-03-23T00:39:52;1.23;;;0.77;;
17494;SDS011;8864;51.970;4.614;2023-03-23T00:42:22;2.28;;;0.90;;
17494;SDS011;8864;51.970;4.614;2023-03-23T00:44:51;2.45;;;0.82;;
17494;SDS011;8864;51.970;4.614;2023-03-23T00:47:25;4.28;;;1.13;;
17494;SDS011;8864;51.970;4.614;2023-03-23T00:49:56;1.30;;;0.90;;
17494;SDS011;8864;51.970;4.614;2023-03-23T00:52:23;2.10;;;0.77;;
17494;SDS011;8864;51.970;4.614;2023-03-23T00:54:50;2.90;;;0.95;;
17494;SDS011;8864;51.970;4.614;2023-03-23T00:57:17;3.50;;;1.10;;
17494;SDS011;8864;51.970;4.614;2023-03-23T00:59:44;2.03;;;1.00;;
17494;SDS011;8864;51.970;4.614;2023-03-23T01:02:11;3.38;;;1.00;;
17494;SDS011;8864;51.970;4.614;2023-03-23T01:04:38;3.65;;;0.82;;
17494;SDS011;8864;51.970;4.614;2023-03-23T01:07:11;2.15;;;0.82;;
17494;SDS011;8864;51.970;4.614;2023-03-23T01:09:38;0.85;;;0.65;;
17494;SDS011;8864;51.970;4.614;2023-03-23T01:12:10;1.48;;;0.70;;
17494;SDS011;8864;51.970;4.614;2023-03-23T01:14:37;2.45;;;1.20;;
17494;SDS011;8864;51.970;4.614;2023-03-23T01:17:04;6.78;;;1.13;;
17494;SDS011;8864;51.970;4.614;2023-03-23T01:19:31;4.03;;;0.90;;
17494;SDS011;8864;51.970;4.614;2023-03-23T01:21:58;2.15;;;0.90;;
17494;SDS011;8864;51.970;4.614;2023-03-23T01:24:29;3.05;;;1.00;;
17494;SDS011;8864;51.970;4.614;2023-03-23T01:26:57;2.05;;;0.90;;
17494;SDS011;8864;51.970;4.614;2023-03-23T01:29:28;1.80;;;0.90;;
17494;SDS011;8864;51.970;4.614;2023-03-23T01:31:55;3.88;;;1.30;;
17494;SDS011;8864;51.970;4.614;2023-03-23T01:34:22;4.75;;;1.10;;
17494;SDS011;8864;51.970;4.614;2023-03-23T01:36:50;1.75;;;0.68;;
17494;SDS011;8864;51.970;4.614;2023-03-23T01:39:17;2.08;;;0.70;;
17494;SDS011;8864;51.970;4.614;2023-03-23T01:41:46;1.40;;;0.63;;
17494;SDS011;8864;51.970;4.614;2023-03-23T01:47:18;2.13;;;0.80;;
17494;SDS011;8864;51.970;4.614;2023-03-23T01:49:51;4.22;;;0.90;;
17494;SDS011;8864;51.970;4.614;2023-03-23T01:52:19;1.23;;;0.85;;
17494;SDS011;8864;51.970;4.614;2023-03-23T01:54:50;1.98;;;0.85;;
17494;SDS011;8864;51.970;4.614;2023-03-23T01:57:19;2.63;;;1.23;;
17494;SDS011;8864;51.970;4.614;2023-03-23T01:59:52;1.55;;;0.82;;
17494;SDS011;8864;51.970;4.614;2023-03-23T02:02:21;1.60;;;0.80;;
17494;SDS011;8864;51.970;4.614;2023-03-23T02:04:51;1.88;;;0.80;;
17494;SDS011;8864;51.970;4.614;2023-03-23T02:07:25;1.55;;;0.90;;
17494;SDS011;8864;51.970;4.614;2023-03-23T02:09:52;1.95;;;0.70;;
17494;SDS011;8864;51.970;4.614;2023-03-23T02:12:20;0.93;;;0.60;;
17494;SDS011;8864;51.970;4.614;2023-03-23T02:14:47;1.52;;;0.77;;
17494;SDS011;8864;51.970;4.614;2023-03-23T02:17:15;3.78;;;0.98;;
17494;SDS011;8864;51.970;4.614;2023-03-23T02:19:54;1.55;;;0.70;;
17494;SDS011;8864;51.970;4.614;2023-03-23T02:22:43;0.82;;;0.60;;
17494;SDS011;8864;51.970;4.614;2023-03-23T02:25:47;0.50;;;0.50;;
17494;SDS011;8864;51.970;4.614;2023-03-23T02:28:41;1.65;;;0.80;;
17494;SDS011;8864;51.970;4.614;2023-03-23T02:31:43;0.85;;;0.77;;
17494;SDS011;8864;51.970;4.614;2023-03-23T02:34:17;0.77;;;0.60;;
17494;SDS011;8864;51.970;4.614;2023-03-23T02:36:46;1.80;;;0.68;;
17494;SDS011;8864;51.970;4.614;2023-03-23T02:39:18;2.72;;;0.80;;
17494;SDS011;8864;51.970;4.614;2023-03-23T02:41:50;1.38;;;0.80;;
17494;SDS011;8864;51.970;4.614;2023-03-23T02:44:20;4.00;;;1.08;;
17494;SDS011;8864;51.970;4.614;2023-03-23T02:46:51;2.60;;;0.70;;
17494;SDS011;8864;51.970;4.614;2023-03-23T02:49:21;1.23;;;0.70;;
17494;SDS011;8864;51.970;4.614;2023-03-23T02:51:51;1.40;;;0.90;;
17494;SDS011;8864;51.970;4.614;2023-03-23T02:54:21;2.33;;;0.70;;
17494;SDS011;8864;51.970;4.614;2023-03-23T02:56:52;1.20;;;0.70;;
17494;SDS011;8864;51.970;4.614;2023-03-23T02:59:20;1.33;;;0.88;;
17494;SDS011;8864;51.970;4.614;2023-03-23T03:01:48;1.88;;;0.90;;
17494;SDS011;8864;51.970;4.614;2023-03-23T03:04:32;1.17;;;0.70;;
17494;SDS011;8864;51.970;4.614;2023-03-23T03:10:04;4.38;;;1.00;;
17494;SDS011;8864;51.970;4.614;2023-03-23T03:12:41;2.28;;;0.88;;
17494;SDS011;8864;51.970;4.614;2023-03-23T03:15:15;1.13;;;0.73;;
17494;SDS011;8864;51.970;4.614;2023-03-23T03:17:50;2.75;;;0.90;;
17494;SDS011;8864;51.970;4.614;2023-03-23T03:20:23;2.63;;;0.80;;
17494;SDS011;8864;51.970;4.614;2023-03-23T03:22:51;1.77;;;0.73;;
17494;SDS011;8864;51.970;4.614;2023-03-23T03:25:20;2.03;;;0.70;;
17494;SDS011;8864;51.970;4.614;2023-03-23T03:27:47;2.53;;;1.00;;
17494;SDS011;8864;51.970;4.614;2023-03-23T03:30:18;1.52;;;0.85;;
17494;SDS011;8864;51.970;4.614;2023-03-23T03:32:49;2.22;;;0.82;;
17494;SDS011;8864;51.970;4.614;2023-03-23T03:35:20;0.98;;;0.60;;
17494;SDS011;8864;51.970;4.614;2023-03-23T03:37:52;1.98;;;0.80;;
17494;SDS011;8864;51.970;4.614;2023-03-23T03:40:20;2.42;;;0.70;;
17494;SDS011;8864;51.970;4.614;2023-03-23T03:42:49;1.40;;;0.70;;
17494;SDS011;8864;51.970;4.614;2023-03-23T03:45:17;2.67;;;0.65;;
17494;SDS011;8864;51.970;4.614;2023-03-23T03:47:46;2.35;;;0.75;;
17494;SDS011;8864;51.970;4.614;2023-03-23T03:50:13;1.33;;;0.70;;
17494;SDS011;8864;51.970;4.614;2023-03-23T03:52:44;2.60;;;0.88;;
17494;SDS011;8864;51.970;4.614;2023-03-23T03:55:13;1.17;;;0.80;;
17494;SDS011;8864;51.970;4.614;2023-03-23T03:57:40;1.42;;;0.60;;
17494;SDS011;8864;51.970;4.614;2023-03-23T04:00:08;1.92;;;0.70;;
17494;SDS011;8864;51.970;4.614;2023-03-23T04:02:40;2.42;;;0.98;;
17494;SDS011;8864;51.970;4.614;2023-03-23T04:05:08;4.95;;;1.08;;
17494;SDS011;8864;51.970;4.614;2023-03-23T04:07:36;2.00;;;0.65;;
17494;SDS011;8864;51.970;4.614;2023-03-23T04:10:06;3.03;;;0.82;;
17494;SDS011;8864;51.970;4.614;2023-03-23T04:12:34;2.30;;;0.80;;
17494;SDS011;8864;51.970;4.614;2023-03-23T04:15:02;1.42;;;0.70;;
17494;SDS011;8864;51.970;4.614;2023-03-23T04:17:30;3.20;;;0.77;;
17494;SDS011;8864;51.970;4.614;2023-03-23T04:19:57;1.23;;;0.70;;
17494;SDS011;8864;51.970;4.614;2023-03-23T04:22:25;3.08;;;0.90;;
17494;SDS011;8864;51.970;4.614;2023-03-23T04:24:55;2.72;;;0.90;;
17494;SDS011;8864;51.970;4.614;2023-03-23T04:27:27;2.97;;;1.00;;
17494;SDS011;8864;51.970;4.614;2023-03-23T04:29:55;2.67;;;0.90;;
17494;SDS011;8864;51.970;4.614;2023-03-23T04:32:23;2.25;;;0.90;;
17494;SDS011;8864;51.970;4.614;2023-03-23T04:34:54;2.65;;;0.70;;
17494;SDS011;8864;51.970;4.614;2023-03-23T04:37:23;2.55;;;1.10;;
17494;SDS011;8864;51.970;4.614;2023-03-23T04:39:54;1.83;;;0.82;;
17494;SDS011;8864;51.970;4.614;2023-03-23T04:42:27;3.15;;;0.90;;
17494;SDS011;8864;51.970;4.614;2023-03-23T04:44:54;2.17;;;0.80;;
17494;SDS011;8864;51.970;4.614;2023-03-23T04:47:22;2.35;;;0.80;;
17494;SDS011;8864;51.970;4.614;2023-03-23T04:49:49;1.63;;;0.77;;
17494;SDS011;8864;51.970;4.614;2023-03-23T04:52:16;2.35;;;0.90;;
17494;SDS011;8864;51.970;4.614;2023-03-23T04:54:45;2.67;;;0.93;;
17494;SDS011;8864;51.970;4.614;2023-03-23T04:57:13;3.15;;;1.10;;
17494;SDS011;8864;51.970;4.614;2023-03-23T04:59:42;2.63;;;0.80;;
17494;SDS011;8864;51.970;4.614;2023-03-23T05:02:09;2.38;;;0.90;;
17494;SDS011;8864;51.970;4.614;2023-03-23T05:04:38;2.97;;;0.80;;
17494;SDS011;8864;51.970;4.614;2023-03-23T05:07:05;1.55;;;0.60;;
17494;SDS011;8864;51.970;4.614;2023-03-23T05:09:33;2.75;;;0.90;;
17494;SDS011;8864;51.970;4.614;2023-03-23T05:12:05;3.28;;;0.80;;
17494;SDS011;8864;51.970;4.614;2023-03-23T05:14:32;2.70;;;1.17;;
17494;SDS011;8864;51.970;4.614;2023-03-23T05:17:01;5.13;;;1.23;;
17494;SDS011;8864;51.970;4.614;2023-03-23T05:19:28;1.92;;;0.65;;
17494;SDS011;8864;51.970;4.614;2023-03-23T05:21:56;3.78;;;0.90;;
17494;SDS011;8864;51.970;4.614;2023-03-23T05:24:28;3.53;;;0.90;;
17494;SDS011;8864;51.970;4.614;2023-03-23T05:26:57;2.78;;;0.90;;
17494;SDS011;8864;51.970;4.614;2023-03-23T05:29:25;3.80;;;0.80;;
17494;SDS011;8864;51.970;4.614;2023-03-23T05:31:55;2.20;;;1.00;;
17494;SDS011;8864;51.970;4.614;2023-03-23T05:34:26;4.75;;;0.68;;
17494;SDS011;8864;51.970;4.614;2023-03-23T05:36:53;1.45;;;0.70;;
17494;SDS011;8864;51.970;4.614;2023-03-23T05:39:22;1.88;;;0.70;;
17494;SDS011;8864;51.970;4.614;2023-03-23T05:41:49;3.45;;;1.02;;
17494;SDS011;8864;51.970;4.614;2023-03-23T05:44:16;2.15;;;0.82;;
17494;SDS011;8864;51.970;4.614;2023-03-23T05:46:44;3.45;;;1.02;;
17494;SDS011;8864;51.970;4.614;2023-03-23T05:49:14;3.25;;;0.98;;
17494;SDS011;8864;51.970;4.614;2023-03-23T05:51:43;4.55;;;1.02;;
17494;SDS011;8864;51.970;4.614;2023-03-23T05:54:11;2.28;;;0.82;;
17494;SDS011;8864;51.970;4.614;2023-03-23T05:56:39;4.18;;;1.05;;
17494;SDS011;8864;51.970;4.614;2023-03-23T05:59:06;3.08;;;0.82;;
17494;SDS011;8864;51.970;4.614;2023-03-23T06:01:33;3.72;;;1.05;;
17494;SDS011;8864;51.970;4.614;2023-03-23T06:04:00;4.40;;;1.38;;
17494;SDS011;8864;51.970;4.614;2023-03-23T06:06:27;3.65;;;0.80;;
17494;SDS011;8864;51.970;4.614;2023-03-23T06:08:58;4.78;;;1.00;;
17494;SDS011;8864;51.970;4.614;2023-03-23T06:11:25;4.25;;;0.90;;
17494;SDS011;8864;51.970;4.614;2023-03-23T06:13:52;4.40;;;0.90;;
17494;SDS011;8864;51.970;4.614;2023-03-23T06:16:20;4.70;;;1.20;;
17494;SDS011;8864;51.970;4.614;2023-03-23T06:18:48;3.20;;;1.10;;
17494;SDS011;8864;51.970;4.614;2023-03-23T06:21:25;2.30;;;1.15;;
17494;SDS011;8864;51.970;4.614;2023-03-23T06:23:53;3.15;;;0.93;;
17494;SDS011;8864;51.970;4.614;2023-03-23T06:26:22;2.22;;;0.80;;
17494;SDS011;8864;51.970;4.614;2023-03-23T06:28:53;1.95;;;0.70;;
17494;SDS011;8864;51.970;4.614;2023-03-23T06:31:20;3.72;;;1.20;;
17494;SDS011;8864;51.970;4.614;2023-03-23T06:33:48;3.55;;;0.90;;
17494;SDS011;8864;51.970;4.614;2023-03-23T06:36:15;3.17;;;0.77;;
17494;SDS011;8864;51.970;4.614;2023-03-23T06:38:42;3.38;;;0.95;;
17494;SDS011;8864;51.970;4.614;2023-03-23T06:41:09;3.65;;;1.13;;
17494;SDS011;8864;51.970;4.614;2023-03-23T06:43:39;4.70;;;1.02;;
17494;SDS011;8864;51.970;4.614;2023-03-23T06:46:09;7.10;;;1.17;;
17494;SDS011;8864;51.970;4.614;2023-03-23T06:48:35;3.28;;;1.05;;
17494;SDS011;8864;51.970;4.614;2023-03-23T06:51:03;4.68;;;1.30;;
17494;SDS011;8864;51.970;4.614;2023-03-23T06:53:31;4.13;;;1.17;;
17494;SDS011;8864;51.970;4.614;2023-03-23T06:55:58;3.47;;;1.02;;
17494;SDS011;8864;51.970;4.614;2023-03-23T06:58:25;2.97;;;1.00;;
17494;SDS011;8864;51.970;4.614;2023-03-23T07:00:56;3.47;;;1.00;;
17494;SDS011;8864;51.970;4.614;2023-03-23T07:03:24;5.22;;;1.00;;
17494;SDS011;8864;51.970;4.614;2023-03-23T07:05:52;3.75;;;1.00;;
17494;SDS011;8864;51.970;4.614;2023-03-23T07:08:20;4.80;;;1.15;;
17494;SDS011;8864;51.970;4.614;2023-03-23T07:10:47;4.25;;;1.08;;
17494;SDS011;8864;51.970;4.614;2023-03-23T07:13:17;3.97;;;1.20;;
17494;SDS011;8864;51.970;4.614;2023-03-23T07:15:46;2.60;;;0.70;;
17494;SDS011;8864;51.970;4.614;2023-03-23T07:18:17;3.65;;;1.00;;
17494;SDS011;8864;51.970;4.614;2023-03-23T07:20:46;6.97;;;1.40;;
17494;SDS011;8864;51.970;4.614;2023-03-23T07:23:14;3.08;;;1.00;;
17494;SDS011;8864;51.970;4.614;2023-03-23T07:25:42;4.53;;;1.10;;
17494;SDS011;8864;51.970;4.614;2023-03-23T07:28:09;4.85;;;1.10;;
17494;SDS011;8864;51.970;4.614;2023-03-23T07:30:37;4.75;;;1.23;;
17494;SDS011;8864;51.970;4.614;2023-03-23T07:33:06;2.92;;;0.90;;
17494;SDS011;8864;51.970;4.614;2023-03-23T07:35:36;86.70;;;13.48;;
17494;SDS011;8864;51.970;4.614;2023-03-23T07:38:03;74.22;;;14.50;;
17494;SDS011;8864;51.970;4.614;2023-03-23T07:40:31;62.88;;;10.48;;
17494;SDS011;8864;51.970;4.614;2023-03-23T07:42:59;61.53;;;10.30;;
17494;SDS011;8864;51.970;4.614;2023-03-23T07:45:28;62.50;;;10.45;;
17494;SDS011;8864;51.970;4.614;2023-03-23T07:47:56;46.67;;;8.98;;
17494;SDS011;8864;51.970;4.614;2023-03-23T07:50:25;47.47;;;8.40;;
17494;SDS011;8864;51.970;4.614;2023-03-23T07:52:54;49.17;;;8.38;;
17494;SDS011;8864;51.970;4.614;2023-03-23T07:55:22;48.40;;;8.50;;
17494;SDS011;8864;51.970;4.614;2023-03-23T07:57:50;47.67;;;9.35;;
17494;SDS011;8864;51.970;4.614;2023-03-23T08:00:19;40.28;;;8.55;;
17494;SDS011;8864;51.970;4.614;2023-03-23T08:02:49;40.42;;;7.78;;
17494;SDS011;8864;51.970;4.614;2023-03-23T08:05:17;35.95;;;7.15;;
17494;SDS011;8864;51.970;4.614;2023-03-23T08:07:45;45.17;;;8.20;;
17494;SDS011;8864;51.970;4.614;2023-03-23T08:10:14;37.65;;;7.50;;
17494;SDS011;8864;51.970;4.614;2023-03-23T08:12:43;44.35;;;8.13;;
17494;SDS011;8864;51.970;4.614;2023-03-23T08:15:11;33.30;;;7.40;;
17494;SDS011;8864;51.970;4.614;2023-03-23T08:17:41;41.78;;;6.88;;
17494;SDS011;8864;51.970;4.614;2023-03-23T08:20:09;37.40;;;6.55;;
17494;SDS011;8864;51.970;4.614;2023-03-23T08:22:38;27.73;;;6.35;;
17494;SDS011;8864;51.970;4.614;2023-03-23T08:25:06;26.60;;;6.97;;
17494;SDS011;8864;51.970;4.614;2023-03-23T08:27:36;26.50;;;6.63;;
17494;SDS011;8864;51.970;4.614;2023-03-23T08:30:08;33.13;;;6.68;;
17494;SDS011;8864;51.970;4.614;2023-03-23T08:32:37;27.63;;;6.00;;
17494;SDS011;8864;51.970;4.614;2023-03-23T08:35:05;32.22;;;6.57;;
17494;SDS011;8864;51.970;4.614;2023-03-23T08:37:34;26.98;;;6.05;;
17494;SDS011;8864;51.970;4.614;2023-03-23T08:40:01;32.30;;;6.72;;
17494;SDS011;8864;51.970;4.614;2023-03-23T08:42:34;22.10;;;5.57;;
17494;SDS011;8864;51.970;4.614;2023-03-23T08:45:03;24.45;;;5.90;;
17494;SDS011;8864;51.970;4.614;2023-03-23T08:47:32;21.25;;;5.25;;
17494;SDS011;8864;51.970;4.614;2023-03-23T08:50:00;20.42;;;5.13;;
17494;SDS011;8864;51.970;4.614;2023-03-23T08:52:27;20.42;;;4.85;;
17494;SDS011;8864;51.970;4.614;2023-03-23T08:54:55;23.15;;;5.45;;
17494;SDS011;8864;51.970;4.614;2023-03-23T08:57:22;21.70;;;5.10;;
17494;SDS011;8864;51.970;4.614;2023-03-23T08:59:51;17.95;;;5.47;;
17494;SDS011;8864;51.970;4.614;2023-03-23T09:02:22;24.00;;;5.65;;
17494;SDS011;8864;51.970;4.614;2023-03-23T09:04:49;15.77;;;5.45;;
17494;SDS011;8864;51.970;4.614;2023-03-23T09:07:17;18.17;;;5.10;;
17494;SDS011;8864;51.970;4.614;2023-03-23T09:09:46;22.75;;;4.80;;
17494;SDS011;8864;51.970;4.614;2023-03-23T09:12:13;19.80;;;4.53;;
17494;SDS011;8864;51.970;4.614;2023-03-23T09:14:40;16.73;;;4.38;;
17494;SDS011;8864;51.970;4.614;2023-03-23T09:17:10;14.68;;;4.15;;
17494;SDS011;8864;51.970;4.614;2023-03-23T09:19:37;15.15;;;4.07;;
17494;SDS011;8864;51.970;4.614;2023-03-23T09:22:04;21.55;;;4.22;;
17494;SDS011;8864;51.970;4.614;2023-03-23T09:24:31;16.90;;;4.03;;
17494;SDS011;8864;51.970;4.614;2023-03-23T09:26:58;15.30;;;3.67;;
17494;SDS011;8864;51.970;4.614;2023-03-23T09:29:25;14.38;;;3.85;;
17494;SDS011;8864;51.970;4.614;2023-03-23T09:31:52;15.15;;;3.90;;
17494;SDS011;8864;51.970;4.614;2023-03-23T09:34:21;11.95;;;3.60;;
17494;SDS011;8864;51.970;4.614;2023-03-23T09:36:48;14.60;;;3.42;;
17494;SDS011;8864;51.970;4.614;2023-03-23T09:39:15;14.27;;;3.92;;
17494;SDS011;8864;51.970;4.614;2023-03-23T09:41:57;13.65;;;3.67;;
17494;SDS011;8864;51.970;4.614;2023-03-23T09:44:34;11.38;;;3.33;;
17494;SDS011;8864;51.970;4.614;2023-03-23T09:47:13;14.80;;;3.72;;
17494;SDS011;8864;51.970;4.614;2023-03-23T09:49:48;12.57;;;3.75;;
17494;SDS011;8864;51.970;4.614;2023-03-23T09:52:19;12.30;;;3.55;;
17494;SDS011;8864;51.970;4.614;2023-03-23T09:54:48;12.73;;;3.58;;
17494;SDS011;8864;51.970;4.614;2023-03-23T09:57:20;10.88;;;3.17;;
17494;SDS011;8864;51.970;4.614;2023-03-23T09:59:53;12.27;;;3.42;;
17494;SDS011;8864;51.970;4.614;2023-03-23T10:02:26;11.75;;;3.20;;
17494;SDS011;8864;51.970;4.614;2023-03-23T10:04:58;9.75;;;3.08;;
17494;SDS011;8864;51.970;4.614;2023-03-23T10:07:42;9.57;;;2.70;;
17494;SDS011;8864;51.970;4.614;2023-03-23T10:10:12;9.98;;;3.03;;
17494;SDS011;8864;51.970;4.614;2023-03-23T10:12:41;8.25;;;2.72;;
17494;SDS011;8864;51.970;4.614;2023-03-23T10:15:16;9.95;;;2.83;;
17494;SDS011;8864;51.970;4.614;2023-03-23T10:17:46;8.48;;;2.97;;
17494;SDS011;8864;51.970;4.614;2023-03-23T10:23:12;8.93;;;3.00;;
17494;SDS011;8864;51.970;4.614;2023-03-23T10:25:51;9.00;;;2.63;;
17494;SDS011;8864;51.970;4.614;2023-03-23T10:28:21;7.80;;;2.58;;
17494;SDS011;8864;51.970;4.614;2023-03-23T10:31:00;11.35;;;2.72;;
17494;SDS011;8864;51.970;4.614;2023-03-23T10:33:30;8.27;;;2.40;;
17494;SDS011;8864;51.970;4.614;2023-03-23T10:36:08;6.88;;;2.40;;
17494;SDS011;8864;51.970;4.614;2023-03-23T10:38:39;5.78;;;2.10;;
17494;SDS011;8864;51.970;4.614;2023-03-23T10:41:09;8.02;;;2.38;;
17494;SDS011;8864;51.970;4.614;2023-03-23T10:43:38;9.57;;;2.40;;
17494;SDS011;8864;51.970;4.614;2023-03-23T10:46:10;9.07;;;2.40;;
17494;SDS011;8864;51.970;4.614;2023-03-23T10:48:46;12.75;;;2.50;;
17494;SDS011;8864;51.970;4.614;2023-03-23T10:51:17;10.38;;;2.55;;
17494;SDS011;8864;51.970;4.614;2023-03-23T10:53:49;7.82;;;2.60;;
17494;SDS011;8864;51.970;4.614;2023-03-23T10:56:22;9.23;;;2.17;;
17494;SDS011;8864;51.970;4.614;2023-03-23T10:58:50;6.43;;;2.30;;
17494;SDS011;8864;51.970;4.614;2023-03-23T11:01:18;7.80;;;2.33;;
17494;SDS011;8864;51.970;4.614;2023-03-23T11:03:47;7.43;;;2.15;;
17494;SDS011;8864;51.970;4.614;2023-03-23T11:06:20;5.78;;;2.10;;
17494;SDS011;8864;51.970;4.614;2023-03-23T11:08:51;8.52;;;2.47;;
17494;SDS011;8864;51.970;4.614;2023-03-23T11:11:21;7.97;;;2.08;;
17494;SDS011;8864;51.970;4.614;2023-03-23T11:13:56;8.15;;;2.13;;
17494;SDS011;8864;51.970;4.614;2023-03-23T11:16:24;7.88;;;2.42;;
17494;SDS011;8864;51.970;4.614;2023-03-23T11:18:56;8.43;;;2.13;;
17494;SDS011;8864;51.970;4.614;2023-03-23T11:21:25;18.55;;;2.72;;
17494;SDS011;8864;51.970;4.614;2023-03-23T11:23:54;9.05;;;1.95;;
17494;SDS011;8864;51.970;4.614;2023-03-23T11:26:24;12.70;;;2.70;;
17494;SDS011;8864;51.970;4.614;2023-03-23T11:28:55;11.63;;;2.47;;
17494;SDS011;8864;51.970;4.614;2023-03-23T11:31:27;14.10;;;2.35;;
17494;SDS011;8864;51.970;4.614;2023-03-23T11:33:56;7.18;;;2.30;;
17494;SDS011;8864;51.970;4.614;2023-03-23T11:36:32;12.65;;;2.85;;
17494;SDS011;8864;51.970;4.614;2023-03-23T11:39:01;11.77;;;2.45;;
17494;SDS011;8864;51.970;4.614;2023-03-23T11:41:32;11.15;;;2.20;;
17494;SDS011;8864;51.970;4.614;2023-03-23T11:44:08;10.20;;;1.90;;
17494;SDS011;8864;51.970;4.614;2023-03-23T11:46:40;12.10;;;2.40;;
17494;SDS011;8864;51.970;4.614;2023-03-23T11:49:20;12.30;;;2.83;;
17494;SDS011;8864;51.970;4.614;2023-03-23T11:51:58;14.32;;;2.33;;
17494;SDS011;8864;51.970;4.614;2023-03-23T11:54:32;14.25;;;2.50;;
17494;SDS011;8864;51.970;4.614;2023-03-23T11:57:05;9.43;;;2.08;;
17494;SDS011;8864;51.970;4.614;2023-03-23T11:59:37;10.07;;;1.92;;
17494;SDS011;8864;51.970;4.614;2023-03-23T12:02:09;11.48;;;2.33;;
17494;SDS011;8864;51.970;4.614;2023-03-23T12:04:57;7.32;;;2.10;;
17494;SDS011;8864;51.970;4.614;2023-03-23T12:07:35;9.65;;;2.20;;
17494;SDS011;8864;51.970;4.614;2023-03-23T12:10:19;8.80;;;2.10;;
17494;SDS011;8864;51.970;4.614;2023-03-23T12:12:55;9.63;;;2.28;;
17494;SDS011;8864;51.970;4.614;2023-03-23T12:15:33;6.00;;;2.00;;
17494;SDS011;8864;51.970;4.614;2023-03-23T12:18:09;11.00;;;2.30;;
17494;SDS011;8864;51.970;4.614;2023-03-23T12:20:47;9.45;;;1.98;;
17494;SDS011;8864;51.970;4.614;2023-03-23T12:23:24;7.93;;;1.67;;
17494;SDS011;8864;51.970;4.614;2023-03-23T12:28:52;9.20;;;1.70;;
17494;SDS011;8864;51.970;4.614;2023-03-23T12:31:33;7.95;;;1.70;;
17494;SDS011;8864;51.970;4.614;2023-03-23T12:34:06;5.75;;;1.65;;
17494;SDS011;8864;51.970;4.614;2023-03-23T12:36:47;6.00;;;1.60;;
17494;SDS011;8864;51.970;4.614;2023-03-23T12:39:39;7.88;;;1.95;;
17494;SDS011;8864;51.970;4.614;2023-03-23T12:42:17;6.47;;;1.63;;
17494;SDS011;8864;51.970;4.614;2023-03-23T12:44:52;7.68;;;1.80;;
17494;SDS011;8864;51.970;4.614;2023-03-23T12:47:26;10.48;;;1.90;;
17494;SDS011;8864;51.970;4.614;2023-03-23T12:50:09;5.65;;;1.67;;
17494;SDS011;8864;51.970;4.614;2023-03-23T12:52:43;7.50;;;1.70;;
17494;SDS011;8864;51.970;4.614;2023-03-23T12:55:19;4.10;;;1.27;;
17494;SDS011;8864;51.970;4.614;2023-03-23T12:57:54;8.20;;;1.67;;
17494;SDS011;8864;51.970;4.614;2023-03-23T13:00:25;8.18;;;1.60;;
17494;SDS011;8864;51.970;4.614;2023-03-23T13:02:59;5.28;;;1.45;;
17494;SDS011;8864;51.970;4.614;2023-03-23T13:05:32;9.60;;;1.88;;
17494;SDS011;8864;51.970;4.614;2023-03-23T13:08:09;5.10;;;1.52;;
17494;SDS011;8864;51.970;4.614;2023-03-23T13:10:44;5.07;;;1.27;;
17494;SDS011;8864;51.970;4.614;2023-03-23T13:13:14;5.47;;;1.60;;
17494;SDS011;8864;51.970;4.614;2023-03-23T13:15:49;6.28;;;1.33;;
17494;SDS011;8864;51.970;4.614;2023-03-23T13:18:29;6.55;;;1.60;;
17494;SDS011;8864;51.970;4.614;2023-03-23T13:21:10;5.28;;;1.35;;
17494;SDS011;8864;51.970;4.614;2023-03-23T13:23:44;5.68;;;1.42;;
17494;SDS011;8864;51.970;4.614;2023-03-23T13:26:13;3.63;;;1.30;;
17494;SDS011;8864;51.970;4.614;2023-03-23T13:31:34;8.60;;;1.75;;
17494;SDS011;8864;51.970;4.614;2023-03-23T13:34:04;8.18;;;1.80;;
17494;SDS011;8864;51.970;4.614;2023-03-23T13:36:33;7.22;;;1.90;;
17494;SDS011;8864;51.970;4.614;2023-03-23T13:39:04;6.63;;;1.73;;
17494;SDS011;8864;51.970;4.614;2023-03-23T13:41:44;6.97;;;1.60;;
17494;SDS011;8864;51.970;4.614;2023-03-23T13:44:18;10.15;;;1.67;;
17494;SDS011;8864;51.970;4.614;2023-03-23T13:46:54;8.10;;;1.75;;
17494;SDS011;8864;51.970;4.614;2023-03-23T13:49:44;9.93;;;2.10;;
17494;SDS011;8864;51.970;4.614;2023-03-23T13:52:16;9.02;;;1.60;;
17494;SDS011;8864;51.970;4.614;2023-03-23T13:54:47;6.30;;;1.70;;
17494;SDS011;8864;51.970;4.614;2023-03-23T13:57:21;9.43;;;2.20;;
17494;SDS011;8864;51.970;4.614;2023-03-23T13:59:57;7.43;;;1.65;;
17494;SDS011;8864;51.970;4.614;2023-03-23T14:02:29;9.95;;;2.17;;
17494;SDS011;8864;51.970;4.614;2023-03-23T14:05:08;10.02;;;1.90;;
17494;SDS011;8864;51.970;4.614;2023-03-23T14:07:55;10.05;;;2.10;;
17494;SDS011;8864;51.970;4.614;2023-03-23T14:10:25;9.23;;;2.05;;
17494;SDS011;8864;51.970;4.614;2023-03-23T14:12:59;13.52;;;2.55;;
17494;SDS011;8864;51.970;4.614;2023-03-23T14:15:28;8.10;;;1.90;;
17494;SDS011;8864;51.970;4.614;2023-03-23T14:17:56;7.18;;;1.60;;
17494;SDS011;8864;51.970;4.614;2023-03-23T14:20:30;12.48;;;1.80;;
17494;SDS011;8864;51.970;4.614;2023-03-23T14:22:59;7.03;;;1.85;;
17494;SDS011;8864;51.970;4.614;2023-03-23T14:25:30;10.70;;;2.03;;
17494;SDS011;8864;51.970;4.614;2023-03-23T14:27:57;10.23;;;1.88;;
17494;SDS011;8864;51.970;4.614;2023-03-23T14:30:27;9.82;;;1.70;;
17494;SDS011;8864;51.970;4.614;2023-03-23T14:33:03;7.90;;;2.33;;
17494;SDS011;8864;51.970;4.614;2023-03-23T14:35:34;10.40;;;2.30;;
17494;SDS011;8864;51.970;4.614;2023-03-23T14:38:03;9.85;;;1.88;;
17494;SDS011;8864;51.970;4.614;2023-03-23T14:40:30;9.35;;;2.00;;
17494;SDS011;8864;51.970;4.614;2023-03-23T14:42:57;7.40;;;2.00;;
17494;SDS011;8864;51.970;4.614;2023-03-23T14:45:27;14.88;;;2.33;;
17494;SDS011;8864;51.970;4.614;2023-03-23T14:47:56;10.48;;;2.45;;
17494;SDS011;8864;51.970;4.614;2023-03-23T14:50:26;12.50;;;2.03;;
17494;SDS011;8864;51.970;4.614;2023-03-23T14:52:59;11.43;;;2.10;;
17494;SDS011;8864;51.970;4.614;2023-03-23T14:55:30;7.18;;;1.90;;
17494;SDS011;8864;51.970;4.614;2023-03-23T14:58:06;9.73;;;1.88;;
17494;SDS011;8864;51.970;4.614;2023-03-23T15:00:34;10.27;;;2.25;;
17494;SDS011;8864;51.970;4.614;2023-03-23T15:03:06;13.35;;;2.13;;
17494;SDS011;8864;51.970;4.614;2023-03-23T15:05:40;7.03;;;1.60;;
17494;SDS011;8864;51.970;4.614;2023-03-23T15:08:11;12.93;;;1.98;;
17494;SDS011;8864;51.970;4.614;2023-03-23T15:10:41;13.45;;;2.08;;
17494;SDS011;8864;51.970;4.614;2023-03-23T15:13:18;9.10;;;2.03;;
17494;SDS011;8864;51.970;4.614;2023-03-23T15:15:45;9.00;;;1.85;;
17494;SDS011;8864;51.970;4.614;2023-03-23T15:18:22;8.50;;;1.90;;
17494;SDS011;8864;51.970;4.614;2023-03-23T15:20:56;7.47;;;1.70;;
17494;SDS011;8864;51.970;4.614;2023-03-23T15:23:26;9.50;;;1.90;;
17494;SDS011;8864;51.970;4.614;2023-03-23T15:25:55;4.88;;;1.42;;
17494;SDS011;8864;51.970;4.614;2023-03-23T15:28:29;10.18;;;2.53;;
17494;SDS011;8864;51.970;4.614;2023-03-23T15:31:00;11.18;;;1.90;;
17494;SDS011;8864;51.970;4.614;2023-03-23T15:33:33;10.32;;;2.20;;